Time;durP1;ratioP1;P1;durP2;ratioP2;P2;SDS_P1;SDS_P2;PMS_P1;PMS_P2;Temp;Humidity;BMP_temperature;BMP_pressure;BME280_temperature;BME280_humidity;BME280_pressure;Samples;Min_cycle;Max_cycle;Signal;HPM_P1;HPM_P2
2021/12/16 00:35:34;;;;;;;0.20;0.00;;;8.20;99.90;;;;;;20828886;28;20253;-69
2021/12/16 00:45:44;;;;;;;0.20;0.10;;;8.50;99.90;;;;;;20833655;28;20207;-69
2021/12/16 00:55:50;;;;;;;0.20;0.10;;;8.40;99.90;;;;;;20832506;28;20240;-70
2021/12/16 01:37:40;;;;;;;0.20;0.10;;;8.90;99.90;;;;;;20828738;28;20264;-68
2021/12/16 01:48:01;;;;;;;0.20;0.10;;;8.90;99.90;;;;;;20813037;28;20273;-68
2021/12/16 01:58:11;;;;;;;0.20;0.10;;;8.90;99.90;;;;;;20846356;28;20217;-70
2021/12/16 02:08:21;;;;;;;1.00;1.00;;;8.70;99.90;;;;;;20832023;28;20223;-69
2021/12/16 02:29:05;;;;;;;0.20;0.10;;;8.40;99.90;;;;;;20830382;28;20224;-69
2021/12/16 02:39:12;;;;;;;0.20;0.10;;;8.30;99.90;;;;;;20827407;28;20257;-69
2021/12/16 02:49:17;;;;;;;0.20;0.10;;;8.00;99.90;;;;;;20829224;28;20679;-69
2021/12/16 02:59:26;;;;;;;0.20;0.00;;;7.70;99.90;;;;;;20828685;28;20269;-69
2021/12/16 03:10:03;;;;;;;0.20;0.00;;;8.00;99.90;;;;;;20835035;28;20221;-68
2021/12/16 03:20:13;;;;;;;0.20;0.00;;;8.20;99.90;;;;;;20910124;28;20316;-68
2021/12/16 03:40:41;;;;;;;2.30;2.20;;;8.40;99.90;;;;;;20821943;28;20244;-68
2021/12/16 03:50:47;;;;;;;0.20;0.10;;;8.20;99.90;;;;;;20825692;28;20194;-68
2021/12/16 04:00:57;;;;;;;2.90;2.20;;;8.30;99.90;;;;;;20849577;23;20240;-69
2021/12/16 04:11:10;;;;;;;0.20;0.10;;;8.10;99.90;;;;;;20909541;28;20197;-69
2021/12/16 04:21:13;;;;;;;1.40;1.20;;;8.20;99.90;;;;;;20907687;28;20278;-70
2021/12/16 04:31:19;;;;;;;0.20;0.10;;;8.10;99.90;;;;;;20906362;28;20313;-68
2021/12/16 04:41:23;;;;;;;0.20;0.10;;;8.10;99.90;;;;;;20932460;28;20221;-69
2021/12/16 04:51:31;;;;;;;0.20;0.00;;;7.80;99.90;;;;;;20908586;28;20232;-69
2021/12/16 05:01:35;;;;;;;0.20;0.07;;;7.40;99.90;;;;;;20938799;28;20275;-69
2021/12/16 05:11:40;;;;;;;0.20;0.10;;;7.60;99.90;;;;;;21003809;28;20713;-70
2021/12/16 05:21:51;;;;;;;0.20;0.00;;;7.90;99.90;;;;;;20984437;28;20231;-69
2021/12/16 05:31:56;;;;;;;0.20;0.10;;;7.90;99.90;;;;;;20995290;28;20579;-69
2021/12/16 05:42:00;;;;;;;0.20;0.10;;;8.00;99.90;;;;;;20918152;28;20231;-69
2021/12/16 05:52:05;;;;;;;0.20;0.10;;;8.00;99.90;;;;;;20917553;28;20190;-70
2021/12/16 06:02:09;;;;;;;0.20;0.10;;;7.90;99.90;;;;;;20898635;28;20609;-69
2021/12/16 06:12:16;;;;;;;0.20;0.10;;;8.00;99.90;;;;;;20944663;28;20629;-69
2021/12/16 06:22:39;;;;;;;0.20;0.10;;;7.90;99.90;;;;;;20996978;28;20225;-69
2021/12/16 06:32:44;;;;;;;0.20;0.10;;;8.10;99.90;;;;;;20995866;28;20276;-68
2021/12/16 06:42:49;;;;;;;0.20;0.10;;;8.40;99.90;;;;;;20976800;28;20629;-68
2021/12/16 06:52:58;;;;;;;0.20;0.10;;;9.00;99.90;;;;;;20992801;28;20223;-69
2021/12/16 07:03:04;;;;;;;0.20;0.10;;;9.20;99.90;;;;;;20990911;28;20232;-69
2021/12/16 07:13:17;;;;;;;0.20;0.10;;;9.10;99.90;;;;;;21018960;28;20192;-69
2021/12/16 07:23:24;;;;;;;0.20;0.10;;;9.00;99.90;;;;;;20992344;28;20770;-67
2021/12/16 07:33:28;;;;;;;0.20;0.10;;;8.90;99.90;;;;;;20989842;28;20189;-69
2021/12/16 07:43:54;;;;;;;0.20;0.20;;;9.10;99.90;;;;;;20969398;28;20286;-69
2021/12/16 07:54:06;;;;;;;0.20;0.03;;;9.10;99.90;;;;;;20990616;28;20265;-69
2021/12/16 08:04:18;;;;;;;0.20;0.10;;;9.00;99.90;;;;;;20986694;28;20323;-68
2021/12/16 08:14:24;;;;;;;0.20;0.10;;;9.00;99.90;;;;;;20987491;28;20239;-69
2021/12/16 08:24:28;;;;;;;0.20;0.10;;;9.20;99.90;;;;;;20987020;28;20208;-69
2021/12/16 08:34:37;;;;;;;0.20;0.10;;;9.60;99.90;;;;;;20998546;28;20225;-69
2021/12/16 08:44:40;;;;;;;0.20;0.10;;;9.90;99.90;;;;;;21003303;28;20546;-69
2021/12/16 08:54:46;;;;;;;0.20;0.10;;;9.90;99.90;;;;;;21001377;28;20275;-68
2021/12/16 09:04:51;;;;;;;0.20;0.10;;;10.10;99.90;;;;;;20983634;28;20225;-70
2021/12/16 09:14:56;;;;;;;0.20;0.10;;;10.40;99.90;;;;;;21002790;28;20189;-69
2021/12/16 09:24:59;;;;;;;0.20;0.10;;;10.80;99.90;;;;;;21000219;28;20216;-70
2021/12/16 09:35:13;;;;;;;0.20;0.10;;;11.30;99.90;;;;;;20982193;28;20234;-69
2021/12/16 09:45:18;;;;;;;0.20;0.10;;;11.70;99.90;;;;;;20963781;28;20741;-69
2021/12/16 09:55:30;;;;;;;0.20;0.10;;;12.20;99.90;;;;;;20997348;28;20279;-73
2021/12/16 10:05:34;;;;;;;0.20;0.10;;;12.80;99.90;;;;;;20996311;28;20236;-70
2021/12/16 10:26:04;;;;;;;0.20;0.03;;;13.90;99.90;;;;;;20937778;28;20233;-71
2021/12/16 10:36:13;;;;;;;0.20;0.10;;;14.20;99.90;;;;;;20959988;28;20529;-71
2021/12/16 10:46:20;;;;;;;0.20;0.03;;;14.70;99.90;;;;;;20992302;28;20315;-71
2021/12/16 10:56:28;;;;;;;0.20;0.20;;;15.40;99.90;;;;;;20977860;28;20197;-71
2021/12/16 11:06:36;;;;;;;0.20;0.07;;;15.80;99.90;;;;;;20977275;28;20333;-71
2021/12/16 11:16:41;;;;;;;0.20;0.10;;;16.10;99.90;;;;;;20978316;28;20535;-71
2021/12/16 11:26:46;;;;;;;0.20;0.10;;;16.40;99.90;;;;;;20993937;28;20208;-70
2021/12/16 11:36:53;;;;;;;0.20;0.20;;;16.50;99.90;;;;;;20973483;28;20201;-70
2021/12/16 11:47:04;;;;;;;0.20;0.10;;;16.80;99.90;;;;;;20990298;28;20579;-71
2021/12/16 11:57:13;;;;;;;0.93;0.93;;;17.30;99.90;;;;;;20989970;28;20219;-71
2021/12/16 12:07:18;;;;;;;0.50;0.50;;;17.60;99.90;;;;;;20997292;28;20312;-71
2021/12/16 12:17:23;;;;;;;0.20;0.10;;;18.10;99.90;;;;;;20986210;28;20600;-72
2021/12/16 12:27:28;;;;;;;0.20;0.10;;;18.00;99.90;;;;;;20990564;28;20616;-71
2021/12/16 12:37:36;;;;;;;0.20;0.10;;;18.70;99.90;;;;;;20972603;28;20304;-71
2021/12/16 12:47:44;;;;;;;0.20;0.00;;;18.60;99.90;;;;;;20988250;28;20684;-72
2021/12/16 12:57:49;;;;;;;0.20;0.00;;;18.70;99.90;;;;;;20988567;28;20232;-70
2021/12/16 13:07:58;;;;;;;0.20;0.10;;;18.30;99.90;;;;;;20986849;28;20569;-70
2021/12/16 13:28:37;;;;;;;0.20;0.20;;;18.50;99.90;;;;;;20984405;28;20193;-70
2021/12/16 13:38:46;;;;;;;0.20;0.00;;;18.00;99.90;;;;;;20984210;28;20244;-69
2021/12/16 13:58:07;;;;;;;0.30;0.30;;;18.00;99.90;;;;;;20996825;28;20693;-70
2021/12/16 14:01:02;;;;;;;0.20;0.10;;;18.50;99.90;;;;;;20996377;28;20220;-70
2021/12/16 14:10:53;;;;;;;0.20;0.10;;;19.00;99.90;;;;;;20994101;28;20216;-70
2021/12/16 14:42:06;;;;;;;0.20;0.10;;;19.20;99.90;;;;;;20953677;28;20280;-70
2021/12/16 14:52:15;;;;;;;0.20;0.10;;;17.10;99.90;;;;;;20991068;28;20212;-70
2021/12/16 15:02:24;;;;;;;0.20;0.10;;;17.10;99.90;;;;;;20989216;28;20272;-70
2021/12/16 15:12:37;;;;;;;0.20;0.00;;;16.20;99.90;;;;;;20971352;28;20291;-73
2021/12/16 15:43:46;;;;;;;0.33;0.33;;;16.40;99.90;;;;;;20986615;28;20228;-71
2021/12/16 15:54:01;;;;;;;0.20;0.10;;;15.70;99.90;;;;;;20988415;28;20231;-71
2021/12/16 16:04:14;;;;;;;0.20;0.10;;;14.40;99.90;;;;;;20981799;28;20323;-69
2021/12/16 16:14:20;;;;;;;0.20;0.00;;;13.60;99.90;;;;;;20974537;28;20266;-74
2021/12/16 16:24:29;;;;;;;0.20;0.10;;;13.00;99.90;;;;;;20995282;28;20224;-73
2021/12/16 16:34:42;;;;;;;0.20;0.10;;;12.40;99.90;;;;;;20958917;28;20192;-70
2021/12/16 16:44:52;;;;;;;0.20;0.00;;;12.00;99.90;;;;;;20975599;28;20247;-73
2021/12/16 16:55:05;;;;;;;0.20;0.10;;;11.60;99.90;;;;;;20983562;28;20196;-71
2021/12/16 17:05:15;;;;;;;0.20;0.10;;;11.20;99.90;;;;;;20998375;28;20277;-72
2021/12/16 17:15:34;;;;;;;0.20;0.10;;;10.90;99.90;;;;;;20998560;28;20258;-70
2021/12/16 17:25:40;;;;;;;0.20;0.00;;;10.80;99.90;;;;;;21002570;28;20311;-70
2021/12/16 17:35:46;;;;;;;0.20;0.10;;;10.60;99.90;;;;;;20998534;28;20193;-70
2021/12/16 17:45:55;;;;;;;0.20;0.10;;;10.30;99.90;;;;;;20966336;28;20712;-72
2021/12/16 17:56:01;;;;;;;0.20;0.10;;;10.10;99.90;;;;;;20997503;28;20208;-72
2021/12/16 18:06:12;;;;;;;0.20;0.03;;;10.10;99.90;;;;;;20997350;28;20710;-72
2021/12/16 18:16:18;;;;;;;0.20;0.10;;;9.80;99.90;;;;;;20979941;28;20207;-72
2021/12/16 18:26:23;;;;;;;0.20;0.10;;;9.80;99.90;;;;;;20996447;28;20285;-72
2021/12/16 18:36:34;;;;;;;0.20;0.10;;;9.80;99.90;;;;;;20994237;28;20261;-71
2021/12/16 18:46:41;;;;;;;0.20;0.00;;;9.70;99.90;;;;;;20993729;28;20287;-72
2021/12/16 18:56:45;;;;;;;0.20;0.10;;;9.70;99.90;;;;;;21011468;28;20271;-72
2021/12/16 19:06:54;;;;;;;0.20;0.10;;;9.50;99.90;;;;;;20910802;28;20286;-72
2021/12/16 19:17:04;;;;;;;0.20;0.00;;;9.50;99.90;;;;;;20957346;28;20232;-71
2021/12/16 19:27:12;;;;;;;0.20;0.00;;;9.40;99.90;;;;;;20992093;28;20625;-73
2021/12/16 19:37:17;;;;;;;0.20;0.00;;;9.30;99.90;;;;;;20988275;28;20200;-73
2021/12/16 19:47:22;;;;;;;0.20;0.10;;;9.30;99.90;;;;;;20989484;28;20220;-72
2021/12/16 19:57:30;;;;;;;0.20;0.00;;;9.20;99.90;;;;;;20995523;28;20251;-72
2021/12/16 20:07:37;;;;;;;0.20;0.00;;;9.10;99.90;;;;;;20996829;28;20224;-74
2021/12/16 20:17:42;;;;;;;0.20;0.07;;;9.10;99.90;;;;;;20974642;28;20193;-71
2021/12/16 20:27:51;;;;;;;0.20;0.00;;;8.70;99.90;;;;;;20998508;28;20220;-71
2021/12/16 20:37:56;;;;;;;0.20;0.03;;;8.50;99.90;;;;;;21000382;28;20208;-72
2021/12/16 20:48:01;;;;;;;0.20;0.00;;;8.50;99.90;;;;;;21002823;28;20659;-70
2021/12/16 20:58:07;;;;;;;0.20;0.00;;;8.40;99.90;;;;;;21006099;28;20189;-71
2021/12/16 21:08:14;;;;;;;0.20;0.10;;;8.60;99.90;;;;;;20989401;28;20267;-72
2021/12/16 21:18:21;;;;;;;0.20;0.00;;;8.80;99.90;;;;;;21001952;28;20228;-71
2021/12/16 21:28:26;;;;;;;0.20;0.10;;;8.50;99.90;;;;;;21004605;28;20197;-71
2021/12/16 21:38:33;;;;;;;1.57;1.50;;;8.30;99.90;;;;;;21001125;28;20864;-70
2021/12/16 21:48:39;;;;;;;0.20;0.10;;;8.50;99.90;;;;;;21002758;28;20216;-71
2021/12/16 21:58:46;;;;;;;0.20;0.10;;;8.10;99.90;;;;;;20998623;28;20192;-71
2021/12/16 22:08:53;;;;;;;0.20;0.10;;;8.00;99.90;;;;;;20996947;28;20681;-70
2021/12/16 22:19:00;;;;;;;0.20;0.03;;;7.90;99.90;;;;;;20994431;28;20231;-69
2021/12/16 22:29:07;;;;;;;0.20;0.00;;;7.90;99.90;;;;;;21018438;28;20189;-71
2021/12/16 22:39:13;;;;;;;0.20;0.10;;;7.80;99.90;;;;;;20933849;28;20579;-71
2021/12/16 22:49:19;;;;;;;0.20;0.00;;;7.70;99.90;;;;;;20913132;28;20198;-71
2021/12/16 22:59:25;;;;;;;3.30;1.40;;;7.80;99.90;;;;;;20912755;28;20315;-71
2021/12/16 23:09:30;;;;;;;0.20;0.00;;;7.70;99.90;;;;;;20919401;28;20609;-70
2021/12/16 23:30:14;;;;;;;0.20;0.00;;;7.70;99.90;;;;;;20994117;28;20280;-71
2021/12/16 23:40:22;;;;;;;2.10;1.90;;;8.20;99.90;;;;;;20992301;28;20575;-71
